sensor_id;sensor_type;location;lat;lon;timestamp;temperature;humidity
54168;DHT22;68429;50.958;3.592;2023-10-13T00:01:56;17.00;99.90
54168;DHT22;68429;50.958;3.592;2023-10-13T00:04:30;17.00;99.90
54168;DHT22;68429;50.958;3.592;2023-10-13T00:06:58;17.00;99.90
54168;DHT22;68429;50.958;3.592;2023-10-13T00:09:28;17.00;99.90
54168;DHT22;68429;50.958;3.592;2023-10-13T00:12:07;17.00;99.90
54168;DHT22;68429;50.958;3.592;2023-10-13T00:14:39;17.00;99.90
54168;DHT22;68429;50.958;3.592;2023-10-13T00:17:06;17.00;99.90
54168;DHT22;68429;50.958;3.592;2023-10-13T00:19:45;17.00;99.90
54168;DHT22;68429;50.958;3.592;2023-10-13T00:22:15;17.00;99.90
54168;DHT22;68429;50.958;3.592;2023-10-13T00:24:43;17.00;99.90
54168;DHT22;68429;50.958;3.592;2023-10-13T00:27:15;17.00;99.90
54168;DHT22;68429;50.958;3.592;2023-10-13T00:29:53;17.00;99.90
54168;DHT22;68429;50.958;3.592;2023-10-13T00:32:38;17.00;99.90
54168;DHT22;68429;50.958;3.592;2023-10-13T00:35:06;17.00;99.90
54168;DHT22;68429;50.958;3.592;2023-10-13T00:37:32;17.00;99.90
54168;DHT22;68429;50.958;3.592;2023-10-13T00:40:07;17.10;99.90
54168;DHT22;68429;50.958;3.592;2023-10-13T00:42:43;17.00;99.90
54168;DHT22;68429;50.958;3.592;2023-10-13T00:45:17;17.10;99.90
54168;DHT22;68429;50.958;3.592;2023-10-13T00:47:44;17.10;99.90
54168;DHT22;68429;50.958;3.592;2023-10-13T00:50:16;17.00;99.90
54168;DHT22;68429;50.958;3.592;2023-10-13T00:52:44;17.10;99.90
54168;DHT22;68429;50.958;3.592;2023-10-13T00:55:13;17.10;99.90
54168;DHT22;68429;50.958;3.592;2023-10-13T00:57:40;17.00;99.90
54168;DHT22;68429;50.958;3.592;2023-10-13T01:00:06;17.00;99.90
54168;DHT22;68429;50.958;3.592;2023-10-13T01:02:45;17.00;99.90
54168;DHT22;68429;50.958;3.592;2023-10-13T01:05:20;17.00;99.90
54168;DHT22;68429;50.958;3.592;2023-10-13T01:07:47;17.00;99.90
54168;DHT22;68429;50.958;3.592;2023-10-13T01:10:20;17.00;99.90
54168;DHT22;68429;50.958;3.592;2023-10-13T01:12:51;17.00;99.90
54168;DHT22;68429;50.958;3.592;2023-10-13T01:15:18;17.00;99.90
54168;DHT22;68429;50.958;3.592;2023-10-13T01:17:46;17.00;99.90
54168;DHT22;68429;50.958;3.592;2023-10-13T01:20:16;17.00;99.90
54168;DHT22;68429;50.958;3.592;2023-10-13T01:22:52;17.00;99.90
54168;DHT22;68429;50.958;3.592;2023-10-13T01:25:24;17.00;99.90
54168;DHT22;68429;50.958;3.592;2023-10-13T01:27:52;17.00;99.90
54168;DHT22;68429;50.958;3.592;2023-10-13T01:30:19;16.90;99.90
54168;DHT22;68429;50.958;3.592;2023-10-13T01:32:52;17.00;99.90
54168;DHT22;68429;50.958;3.592;2023-10-13T01:35:19;17.00;99.90
54168;DHT22;68429;50.958;3.592;2023-10-13T01:38:00;17.00;99.90
54168;DHT22;68429;50.958;3.592;2023-10-13T01:40:25;17.00;99.90
54168;DHT22;68429;50.958;3.592;2023-10-13T01:42:54;17.10;99.90
54168;DHT22;68429;50.958;3.592;2023-10-13T01:45:21;17.10;99.90
54168;DHT22;68429;50.958;3.592;2023-10-13T01:47:47;17.10;99.90
54168;DHT22;68429;50.958;3.592;2023-10-13T01:50:16;17.10;99.90
54168;DHT22;68429;50.958;3.592;2023-10-13T01:52:46;17.10;99.90
54168;DHT22;68429;50.958;3.592;2023-10-13T01:55:13;17.10;99.90
54168;DHT22;68429;50.958;3.592;2023-10-13T01:57:39;17.00;99.90
54168;DHT22;68429;50.958;3.592;2023-10-13T02:00:08;17.10;99.90
54168;DHT22;68429;50.958;3.592;2023-10-13T02:02:45;17.10;99.90
54168;DHT22;68429;50.958;3.592;2023-10-13T02:05:16;17.10;99.90
54168;DHT22;68429;50.958;3.592;2023-10-13T02:07:42;17.10;99.90
54168;DHT22;68429;50.958;3.592;2023-10-13T02:10:11;17.10;99.90
54168;DHT22;68429;50.958;3.592;2023-10-13T02:12:38;17.10;99.90
54168;DHT22;68429;50.958;3.592;2023-10-13T02:15:13;17.10;99.90
54168;DHT22;68429;50.958;3.592;2023-10-13T02:17:52;17.20;99.90
54168;DHT22;68429;50.958;3.592;2023-10-13T02:20:20;17.30;99.90
54168;DHT22;68429;50.958;3.592;2023-10-13T02:22:49;17.30;99.90
54168;DHT22;68429;50.958;3.592;2023-10-13T02:25:19;17.30;99.90
54168;DHT22;68429;50.958;3.592;2023-10-13T02:28:11;17.40;99.90
54168;DHT22;68429;50.958;3.592;2023-10-13T02:30:44;17.40;99.90
54168;DHT22;68429;50.958;3.592;2023-10-13T02:33:14;17.50;99.90
54168;DHT22;68429;50.958;3.592;2023-10-13T02:35:46;17.60;99.90
54168;DHT22;68429;50.958;3.592;2023-10-13T02:38:21;17.60;99.90
54168;DHT22;68429;50.958;3.592;2023-10-13T02:40:58;17.60;99.90
54168;DHT22;68429;50.958;3.592;2023-10-13T02:43:37;17.60;99.90
54168;DHT22;68429;50.958;3.592;2023-10-13T02:46:04;17.60;99.90
54168;DHT22;68429;50.958;3.592;2023-10-13T02:48:30;17.60;99.90
54168;DHT22;68429;50.958;3.592;2023-10-13T02:51:04;17.70;99.90
54168;DHT22;68429;50.958;3.592;2023-10-13T02:53:33;17.70;99.90
54168;DHT22;68429;50.958;3.592;2023-10-13T02:55:59;17.70;99.90
54168;DHT22;68429;50.958;3.592;2023-10-13T02:58:30;17.70;99.90
54168;DHT22;68429;50.958;3.592;2023-10-13T03:01:06;17.70;99.90
54168;DHT22;68429;50.958;3.592;2023-10-13T03:03:46;17.70;99.90
54168;DHT22;68429;50.958;3.592;2023-10-13T03:06:15;17.70;99.90
54168;DHT22;68429;50.958;3.592;2023-10-13T03:08:41;17.70;99.90
54168;DHT22;68429;50.958;3.592;2023-10-13T03:11:09;17.70;99.90
54168;DHT22;68429;50.958;3.592;2023-10-13T03:13:35;17.70;99.90
54168;DHT22;68429;50.958;3.592;2023-10-13T03:16:10;17.80;99.90
54168;DHT22;68429;50.958;3.592;2023-10-13T03:18:36;17.80;99.90
54168;DHT22;68429;50.958;3.592;2023-10-13T03:21:03;17.80;99.90
54168;DHT22;68429;50.958;3.592;2023-10-13T03:23:29;17.80;99.90
54168;DHT22;68429;50.958;3.592;2023-10-13T03:26:10;17.80;99.90
54168;DHT22;68429;50.958;3.592;2023-10-13T03:28:36;17.80;99.90
54168;DHT22;68429;50.958;3.592;2023-10-13T03:31:03;17.80;99.90
54168;DHT22;68429;50.958;3.592;2023-10-13T03:33:29;17.80;99.90
54168;DHT22;68429;50.958;3.592;2023-10-13T03:35:58;17.80;99.90
54168;DHT22;68429;50.958;3.592;2023-10-13T03:38:31;17.80;99.90
54168;DHT22;68429;50.958;3.592;2023-10-13T03:41:02;17.80;99.90
54168;DHT22;68429;50.958;3.592;2023-10-13T03:43:43;17.80;99.90
54168;DHT22;68429;50.958;3.592;2023-10-13T03:46:17;17.70;99.90
54168;DHT22;68429;50.958;3.592;2023-10-13T03:48:47;17.70;99.90
54168;DHT22;68429;50.958;3.592;2023-10-13T03:51:26;17.70;99.90
54168;DHT22;68429;50.958;3.592;2023-10-13T03:53:56;17.70;99.90
54168;DHT22;68429;50.958;3.592;2023-10-13T03:56:24;17.70;99.90
54168;DHT22;68429;50.958;3.592;2023-10-13T03:58:55;17.70;99.90
54168;DHT22;68429;50.958;3.592;2023-10-13T04:01:25;17.70;99.90
54168;DHT22;68429;50.958;3.592;2023-10-13T04:03:58;17.70;99.90
54168;DHT22;68429;50.958;3.592;2023-10-13T04:06:35;17.70;99.90
54168;DHT22;68429;50.958;3.592;2023-10-13T04:09:17;17.70;99.90
54168;DHT22;68429;50.958;3.592;2023-10-13T04:12:02;17.70;99.90
54168;DHT22;68429;50.958;3.592;2023-10-13T04:14:35;17.70;99.90
54168;DHT22;68429;50.958;3.592;2023-10-13T04:17:20;17.60;99.90
54168;DHT22;68429;50.958;3.592;2023-10-13T04:19:50;17.60;99.90
54168;DHT22;68429;50.958;3.592;2023-10-13T04:22:45;17.60;99.90
54168;DHT22;68429;50.958;3.592;2023-10-13T04:25:18;17.60;99.90
54168;DHT22;68429;50.958;3.592;2023-10-13T04:28:03;17.60;99.90
54168;DHT22;68429;50.958;3.592;2023-10-13T04:33:24;17.60;99.90
54168;DHT22;68429;50.958;3.592;2023-10-13T04:36:09;17.60;99.90
54168;DHT22;68429;50.958;3.592;2023-10-13T04:38:59;17.50;99.90
54168;DHT22;68429;50.958;3.592;2023-10-13T04:41:35;17.50;99.90
54168;DHT22;68429;50.958;3.592;2023-10-13T04:44:08;17.50;99.90
54168;DHT22;68429;50.958;3.592;2023-10-13T04:46:49;17.50;99.90
54168;DHT22;68429;50.958;3.592;2023-10-13T04:49:15;17.40;99.90
54168;DHT22;68429;50.958;3.592;2023-10-13T04:52:03;17.40;99.90
54168;DHT22;68429;50.958;3.592;2023-10-13T04:54:39;17.40;99.90
54168;DHT22;68429;50.958;3.592;2023-10-13T04:57:14;17.40;99.90
54168;DHT22;68429;50.958;3.592;2023-10-13T04:59:59;17.50;99.90
54168;DHT22;68429;50.958;3.592;2023-10-13T05:02:38;17.50;99.90
54168;DHT22;68429;50.958;3.592;2023-10-13T05:05:20;17.50;99.90
54168;DHT22;68429;50.958;3.592;2023-10-13T05:07:58;17.50;99.90
54168;DHT22;68429;50.958;3.592;2023-10-13T05:10:42;17.50;99.90
54168;DHT22;68429;50.958;3.592;2023-10-13T05:13:26;17.60;99.90
54168;DHT22;68429;50.958;3.592;2023-10-13T05:16:10;17.60;99.90
54168;DHT22;68429;50.958;3.592;2023-10-13T05:18:54;17.60;99.90
54168;DHT22;68429;50.958;3.592;2023-10-13T05:21:38;17.60;99.90
54168;DHT22;68429;50.958;3.592;2023-10-13T05:24:22;17.70;99.90
54168;DHT22;68429;50.958;3.592;2023-10-13T05:27:06;17.70;99.90
54168;DHT22;68429;50.958;3.592;2023-10-13T05:29:50;17.70;99.90
54168;DHT22;68429;50.958;3.592;2023-10-13T05:32:34;17.70;99.90
54168;DHT22;68429;50.958;3.592;2023-10-13T05:35:20;17.80;99.90
54168;DHT22;68429;50.958;3.592;2023-10-13T05:38:04;17.80;99.90
54168;DHT22;68429;50.958;3.592;2023-10-13T05:40:57;17.90;99.90
54168;DHT22;68429;50.958;3.592;2023-10-13T05:43:43;17.90;99.90
54168;DHT22;68429;50.958;3.592;2023-10-13T05:46:27;17.90;99.90
54168;DHT22;68429;50.958;3.592;2023-10-13T05:48:54;17.90;99.90
54168;DHT22;68429;50.958;3.592;2023-10-13T05:51:20;17.90;99.90
54168;DHT22;68429;50.958;3.592;2023-10-13T05:54:06;17.90;99.90
54168;DHT22;68429;50.958;3.592;2023-10-13T05:59:28;17.90;99.90
54168;DHT22;68429;50.958;3.592;2023-10-13T06:02:14;18.00;99.90
54168;DHT22;68429;50.958;3.592;2023-10-13T06:04:58;18.00;99.90
54168;DHT22;68429;50.958;3.592;2023-10-13T06:07:42;18.00;99.90
54168;DHT22;68429;50.958;3.592;2023-10-13T06:10:25;18.00;99.90
54168;DHT22;68429;50.958;3.592;2023-10-13T06:13:09;18.10;99.90
54168;DHT22;68429;50.958;3.592;2023-10-13T06:15:53;18.10;99.90
54168;DHT22;68429;50.958;3.592;2023-10-13T06:18:37;18.10;99.90
54168;DHT22;68429;50.958;3.592;2023-10-13T06:21:22;18.20;99.90
54168;DHT22;68429;50.958;3.592;2023-10-13T06:24:07;18.30;99.90
54168;DHT22;68429;50.958;3.592;2023-10-13T06:26:51;18.20;99.90
54168;DHT22;68429;50.958;3.592;2023-10-13T06:29:35;18.30;99.90
54168;DHT22;68429;50.958;3.592;2023-10-13T06:32:01;18.30;99.90
54168;DHT22;68429;50.958;3.592;2023-10-13T06:34:30;18.40;99.90
54168;DHT22;68429;50.958;3.592;2023-10-13T06:37:13;18.40;99.90
54168;DHT22;68429;50.958;3.592;2023-10-13T06:39:50;18.30;99.90
54168;DHT22;68429;50.958;3.592;2023-10-13T06:42:16;18.40;99.90
54168;DHT22;68429;50.958;3.592;2023-10-13T06:44:47;18.40;99.90
54168;DHT22;68429;50.958;3.592;2023-10-13T06:47:13;18.40;99.90
54168;DHT22;68429;50.958;3.592;2023-10-13T06:49:42;18.40;99.90
54168;DHT22;68429;50.958;3.592;2023-10-13T06:52:09;18.40;99.90
54168;DHT22;68429;50.958;3.592;2023-10-13T06:54:38;18.50;99.90
54168;DHT22;68429;50.958;3.592;2023-10-13T06:57:05;18.40;99.90
54168;DHT22;68429;50.958;3.592;2023-10-13T06:59:35;18.50;99.90
54168;DHT22;68429;50.958;3.592;2023-10-13T07:02:02;18.50;99.90
54168;DHT22;68429;50.958;3.592;2023-10-13T07:04:32;18.50;99.90
54168;DHT22;68429;50.958;3.592;2023-10-13T07:06:58;18.60;99.90
54168;DHT22;68429;50.958;3.592;2023-10-13T07:09:26;18.60;99.90
54168;DHT22;68429;50.958;3.592;2023-10-13T07:12:01;18.60;99.90
54168;DHT22;68429;50.958;3.592;2023-10-13T07:14:28;18.60;99.90
54168;DHT22;68429;50.958;3.592;2023-10-13T07:17:02;18.70;99.90
54168;DHT22;68429;50.958;3.592;2023-10-13T07:19:30;18.70;99.90
54168;DHT22;68429;50.958;3.592;2023-10-13T07:21:56;18.80;99.90
54168;DHT22;68429;50.958;3.592;2023-10-13T07:24:28;18.80;99.90
54168;DHT22;68429;50.958;3.592;2023-10-13T07:27:00;18.90;99.90
54168;DHT22;68429;50.958;3.592;2023-10-13T07:29:30;18.90;99.90
54168;DHT22;68429;50.958;3.592;2023-10-13T07:32:02;19.00;99.90
54168;DHT22;68429;50.958;3.592;2023-10-13T07:34:29;19.00;99.90
54168;DHT22;68429;50.958;3.592;2023-10-13T07:36:58;19.00;99.90
54168;DHT22;68429;50.958;3.592;2023-10-13T07:39:30;19.00;99.90
54168;DHT22;68429;50.958;3.592;2023-10-13T07:41:59;19.10;99.90
54168;DHT22;68429;50.958;3.592;2023-10-13T07:44:35;19.20;99.90
54168;DHT22;68429;50.958;3.592;2023-10-13T07:47:03;19.20;99.90
54168;DHT22;68429;50.958;3.592;2023-10-13T07:49:35;19.20;99.90
54168;DHT22;68429;50.958;3.592;2023-10-13T07:52:11;19.20;99.90
54168;DHT22;68429;50.958;3.592;2023-10-13T07:54:47;19.20;99.90
54168;DHT22;68429;50.958;3.592;2023-10-13T07:57:18;19.40;99.90
54168;DHT22;68429;50.958;3.592;2023-10-13T07:59:44;19.50;99.90
54168;DHT22;68429;50.958;3.592;2023-10-13T08:02:19;19.50;99.90
54168;DHT22;68429;50.958;3.592;2023-10-13T08:05:17;19.50;99.90
54168;DHT22;68429;50.958;3.592;2023-10-13T08:08:05;19.50;99.90
54168;DHT22;68429;50.958;3.592;2023-10-13T08:10:40;19.50;99.90
54168;DHT22;68429;50.958;3.592;2023-10-13T08:13:11;19.50;99.90
54168;DHT22;68429;50.958;3.592;2023-10-13T08:15:42;19.50;99.90
54168;DHT22;68429;50.958;3.592;2023-10-13T08:18:16;19.50;99.90
54168;DHT22;68429;50.958;3.592;2023-10-13T08:21:05;19.50;99.90
54168;DHT22;68429;50.958;3.592;2023-10-13T08:23:42;19.40;99.90
54168;DHT22;68429;50.958;3.592;2023-10-13T08:26:23;19.40;99.90
54168;DHT22;68429;50.958;3.592;2023-10-13T08:28:56;19.40;99.90
54168;DHT22;68429;50.958;3.592;2023-10-13T08:31:22;19.40;99.90
54168;DHT22;68429;50.958;3.592;2023-10-13T08:33:51;19.40;99.90
54168;DHT22;68429;50.958;3.592;2023-10-13T08:36:23;19.50;99.90
54168;DHT22;68429;50.958;3.592;2023-10-13T08:38:56;19.50;99.90
54168;DHT22;68429;50.958;3.592;2023-10-13T08:41:23;19.50;99.90
54168;DHT22;68429;50.958;3.592;2023-10-13T08:43:50;19.50;99.90
54168;DHT22;68429;50.958;3.592;2023-10-13T08:46:16;19.60;99.90
54168;DHT22;68429;50.958;3.592;2023-10-13T08:48:59;19.60;99.90
54168;DHT22;68429;50.958;3.592;2023-10-13T08:51:52;19.60;99.90
54168;DHT22;68429;50.958;3.592;2023-10-13T08:54:39;19.70;99.90
54168;DHT22;68429;50.958;3.592;2023-10-13T08:57:11;19.80;99.90
54168;DHT22;68429;50.958;3.592;2023-10-13T08:59:58;19.80;99.90
54168;DHT22;68429;50.958;3.592;2023-10-13T09:02:44;19.80;99.90
54168;DHT22;68429;50.958;3.592;2023-10-13T09:05:25;19.70;99.90
54168;DHT22;68429;50.958;3.592;2023-10-13T09:08:26;19.70;99.90
54168;DHT22;68429;50.958;3.592;2023-10-13T09:11:03;19.70;99.90
54168;DHT22;68429;50.958;3.592;2023-10-13T09:13:36;19.70;99.90
54168;DHT22;68429;50.958;3.592;2023-10-13T09:16:15;19.80;99.90
54168;DHT22;68429;50.958;3.592;2023-10-13T09:19:15;19.90;99.90
54168;DHT22;68429;50.958;3.592;2023-10-13T09:21:41;19.90;99.90
54168;DHT22;68429;50.958;3.592;2023-10-13T09:24:12;20.00;99.90
54168;DHT22;68429;50.958;3.592;2023-10-13T09:26:48;20.00;99.90
54168;DHT22;68429;50.958;3.592;2023-10-13T09:29:19;20.00;99.90
54168;DHT22;68429;50.958;3.592;2023-10-13T09:31:47;19.80;99.90
54168;DHT22;68429;50.958;3.592;2023-10-13T09:34:22;19.80;99.90
54168;DHT22;68429;50.958;3.592;2023-10-13T09:36:57;19.80;99.90
54168;DHT22;68429;50.958;3.592;2023-10-13T09:39:26;19.80;99.90
54168;DHT22;68429;50.958;3.592;2023-10-13T09:41:59;19.80;99.90
54168;DHT22;68429;50.958;3.592;2023-10-13T09:44:25;19.80;99.90
54168;DHT22;68429;50.958;3.592;2023-10-13T09:47:00;19.90;99.90
54168;DHT22;68429;50.958;3.592;2023-10-13T09:49:38;20.00;99.90
54168;DHT22;68429;50.958;3.592;2023-10-13T09:52:18;19.90;99.90
54168;DHT22;68429;50.958;3.592;2023-10-13T09:55:00;19.90;99.90
54168;DHT22;68429;50.958;3.592;2023-10-13T09:57:33;19.90;99.90
54168;DHT22;68429;50.958;3.592;2023-10-13T10:00:12;19.90;99.90
54168;DHT22;68429;50.958;3.592;2023-10-13T10:02:59;19.90;99.90
54168;DHT22;68429;50.958;3.592;2023-10-13T10:05:43;19.90;99.90
54168;DHT22;68429;50.958;3.592;2023-10-13T10:08:23;19.90;99.90
54168;DHT22;68429;50.958;3.592;2023-10-13T10:11:04;19.90;99.90
54168;DHT22;68429;50.958;3.592;2023-10-13T10:14:28;20.00;99.90
54168;DHT22;68429;50.958;3.592;2023-10-13T10:16:41;20.00;99.90
54168;DHT22;68429;50.958;3.592;2023-10-13T10:19:12;20.10;99.90
54168;DHT22;68429;50.958;3.592;2023-10-13T10:21:38;20.20;99.90
54168;DHT22;68429;50.958;3.592;2023-10-13T10:24:22;20.30;99.90
54168;DHT22;68429;50.958;3.592;2023-10-13T10:27:06;20.30;99.90
54168;DHT22;68429;50.958;3.592;2023-10-13T10:29:32;20.30;99.90
54168;DHT22;68429;50.958;3.592;2023-10-13T10:31:58;20.40;99.90
54168;DHT22;68429;50.958;3.592;2023-10-13T10:34:30;20.40;99.90
54168;DHT22;68429;50.958;3.592;2023-10-13T10:36:58;20.50;99.90
54168;DHT22;68429;50.958;3.592;2023-10-13T10:39:37;20.60;99.90
54168;DHT22;68429;50.958;3.592;2023-10-13T10:42:13;20.70;99.90
54168;DHT22;68429;50.958;3.592;2023-10-13T10:44:44;20.80;99.90
54168;DHT22;68429;50.958;3.592;2023-10-13T10:47:14;20.90;99.90
54168;DHT22;68429;50.958;3.592;2023-10-13T10:50:02;21.00;99.90
54168;DHT22;68429;50.958;3.592;2023-10-13T10:52:45;21.00;99.90
54168;DHT22;68429;50.958;3.592;2023-10-13T10:55:12;21.00;99.90
54168;DHT22;68429;50.958;3.592;2023-10-13T10:57:40;21.00;99.90
54168;DHT22;68429;50.958;3.592;2023-10-13T11:00:21;21.10;99.90
54168;DHT22;68429;50.958;3.592;2023-10-13T11:02:55;21.20;99.90
54168;DHT22;68429;50.958;3.592;2023-10-13T11:05:21;21.20;99.90
54168;DHT22;68429;50.958;3.592;2023-10-13T11:07:47;21.20;99.90
54168;DHT22;68429;50.958;3.592;2023-10-13T11:10:16;21.20;99.90
54168;DHT22;68429;50.958;3.592;2023-10-13T11:12:58;21.20;99.90
54168;DHT22;68429;50.958;3.592;2023-10-13T11:15:44;21.40;99.90
54168;DHT22;68429;50.958;3.592;2023-10-13T11:18:12;21.50;99.90
54168;DHT22;68429;50.958;3.592;2023-10-13T11:20:47;21.50;99.90
54168;DHT22;68429;50.958;3.592;2023-10-13T11:23:15;21.60;99.90
54168;DHT22;68429;50.958;3.592;2023-10-13T11:25:41;21.60;99.90
54168;DHT22;68429;50.958;3.592;2023-10-13T11:28:14;21.70;99.90
54168;DHT22;68429;50.958;3.592;2023-10-13T11:30:49;21.90;99.90
54168;DHT22;68429;50.958;3.592;2023-10-13T11:33:16;22.00;99.90
54168;DHT22;68429;50.958;3.592;2023-10-13T11:35:55;22.00;99.90
54168;DHT22;68429;50.958;3.592;2023-10-13T11:41:04;21.80;99.90
54168;DHT22;68429;50.958;3.592;2023-10-13T11:43:46;21.80;99.90
54168;DHT22;68429;50.958;3.592;2023-10-13T11:46:13;21.80;99.90
54168;DHT22;68429;50.958;3.592;2023-10-13T11:48:44;21.90;99.90
54168;DHT22;68429;50.958;3.592;2023-10-13T11:51:13;21.90;99.90
54168;DHT22;68429;50.958;3.592;2023-10-13T11:53:57;22.00;99.90
54168;DHT22;68429;50.958;3.592;2023-10-13T11:56:24;22.10;99.90
54168;DHT22;68429;50.958;3.592;2023-10-13T11:58:50;22.10;99.90
54168;DHT22;68429;50.958;3.592;2023-10-13T12:01:17;22.20;99.90
54168;DHT22;68429;50.958;3.592;2023-10-13T12:03:47;22.30;99.90
54168;DHT22;68429;50.958;3.592;2023-10-13T12:06:32;22.30;99.90
54168;DHT22;68429;50.958;3.592;2023-10-13T12:11:40;22.50;99.90
54168;DHT22;68429;50.958;3.592;2023-10-13T12:14:10;22.50;99.90
54168;DHT22;68429;50.958;3.592;2023-10-13T12:16:47;22.50;99.90
54168;DHT22;68429;50.958;3.592;2023-10-13T12:19:21;22.60;99.90
54168;DHT22;68429;50.958;3.592;2023-10-13T12:21:50;22.50;99.90
54168;DHT22;68429;50.958;3.592;2023-10-13T12:24:20;22.50;99.90
54168;DHT22;68429;50.958;3.592;2023-10-13T12:27:04;22.50;99.90
54168;DHT22;68429;50.958;3.592;2023-10-13T12:29:46;22.70;99.90
54168;DHT22;68429;50.958;3.592;2023-10-13T12:32:13;22.90;99.90
54168;DHT22;68429;50.958;3.592;2023-10-13T12:34:40;22.70;99.90
54168;DHT22;68429;50.958;3.592;2023-10-13T12:37:29;22.50;99.90
54168;DHT22;68429;50.958;3.592;2023-10-13T12:40:28;22.30;99.90
54168;DHT22;68429;50.958;3.592;2023-10-13T12:43:12;22.20;99.90
54168;DHT22;68429;50.958;3.592;2023-10-13T12:45:56;22.10;99.90
54168;DHT22;68429;50.958;3.592;2023-10-13T12:48:40;22.00;99.90
54168;DHT22;68429;50.958;3.592;2023-10-13T12:51:21;21.70;99.90
54168;DHT22;68429;50.958;3.592;2023-10-13T12:53:54;21.50;99.90
54168;DHT22;68429;50.958;3.592;2023-10-13T12:56:20;21.40;99.90
54168;DHT22;68429;50.958;3.592;2023-10-13T12:58:51;21.40;99.90
54168;DHT22;68429;50.958;3.592;2023-10-13T13:01:21;21.40;99.90
54168;DHT22;68429;50.958;3.592;2023-10-13T13:03:48;21.50;99.90
54168;DHT22;68429;50.958;3.592;2023-10-13T13:06:22;21.60;99.90
54168;DHT22;68429;50.958;3.592;2023-10-13T13:08:54;21.60;99.90
54168;DHT22;68429;50.958;3.592;2023-10-13T13:11:20;21.70;99.90
54168;DHT22;68429;50.958;3.592;2023-10-13T13:13:46;21.80;99.90
54168;DHT22;68429;50.958;3.592;2023-10-13T13:16:16;21.90;99.90
54168;DHT22;68429;50.958;3.592;2023-10-13T13:18:55;21.90;99.90
54168;DHT22;68429;50.958;3.592;2023-10-13T13:21:21;22.00;99.90
54168;DHT22;68429;50.958;3.592;2023-10-13T13:23:52;22.00;99.90
54168;DHT22;68429;50.958;3.592;2023-10-13T13:26:24;22.00;99.90
54168;DHT22;68429;50.958;3.592;2023-10-13T13:28:50;21.80;99.90
54168;DHT22;68429;50.958;3.592;2023-10-13T13:31:17;21.70;99.90
54168;DHT22;68429;50.958;3.592;2023-10-13T13:33:42;21.60;99.90
54168;DHT22;68429;50.958;3.592;2023-10-13T13:36:11;21.60;99.90
54168;DHT22;68429;50.958;3.592;2023-10-13T13:38:41;21.70;99.90
54168;DHT22;68429;50.958;3.592;2023-10-13T13:41:14;21.70;99.90
54168;DHT22;68429;50.958;3.592;2023-10-13T13:43:52;21.70;99.90
54168;DHT22;68429;50.958;3.592;2023-10-13T13:46:25;21.60;99.90
54168;DHT22;68429;50.958;3.592;2023-10-13T13:48:53;21.50;99.90
54168;DHT22;68429;50.958;3.592;2023-10-13T13:51:27;21.40;99.90
54168;DHT22;68429;50.958;3.592;2023-10-13T13:53:57;21.40;99.90
54168;DHT22;68429;50.958;3.592;2023-10-13T13:56:23;21.50;99.90
54168;DHT22;68429;50.958;3.592;2023-10-13T13:58:54;21.60;99.90
54168;DHT22;68429;50.958;3.592;2023-10-13T14:01:32;21.60;99.90
54168;DHT22;68429;50.958;3.592;2023-10-13T14:03:59;21.60;99.90
54168;DHT22;68429;50.958;3.592;2023-10-13T14:06:32;21.50;99.90
54168;DHT22;68429;50.958;3.592;2023-10-13T14:08:59;21.50;99.90
54168;DHT22;68429;50.958;3.592;2023-10-13T14:11:30;21.50;99.90
54168;DHT22;68429;50.958;3.592;2023-10-13T14:14:06;21.60;99.90
54168;DHT22;68429;50.958;3.592;2023-10-13T14:16:42;21.50;99.90
54168;DHT22;68429;50.958;3.592;2023-10-13T14:19:13;21.40;99.90
54168;DHT22;68429;50.958;3.592;2023-10-13T14:21:58;21.40;99.90
54168;DHT22;68429;50.958;3.592;2023-10-13T14:24:25;21.30;99.90
54168;DHT22;68429;50.958;3.592;2023-10-13T14:26:59;21.30;99.90
54168;DHT22;68429;50.958;3.592;2023-10-13T14:29:33;21.30;99.90
54168;DHT22;68429;50.958;3.592;2023-10-13T14:31:59;21.30;99.90
54168;DHT22;68429;50.958;3.592;2023-10-13T14:34:24;21.20;99.90
54168;DHT22;68429;50.958;3.592;2023-10-13T14:36:52;21.10;99.90
54168;DHT22;68429;50.958;3.592;2023-10-13T14:39:20;21.10;99.90
54168;DHT22;68429;50.958;3.592;2023-10-13T14:41:47;21.20;99.90
54168;DHT22;68429;50.958;3.592;2023-10-13T14:44:13;21.20;99.90
54168;DHT22;68429;50.958;3.592;2023-10-13T14:46:39;21.20;99.90
54168;DHT22;68429;50.958;3.592;2023-10-13T14:49:05;21.20;99.90
54168;DHT22;68429;50.958;3.592;2023-10-13T14:51:31;21.20;99.90
54168;DHT22;68429;50.958;3.592;2023-10-13T14:53:58;21.30;99.90
54168;DHT22;68429;50.958;3.592;2023-10-13T14:56:27;21.30;99.90
54168;DHT22;68429;50.958;3.592;2023-10-13T14:58:53;21.30;99.90
54168;DHT22;68429;50.958;3.592;2023-10-13T15:01:23;21.40;99.90
54168;DHT22;68429;50.958;3.592;2023-10-13T15:03:52;21.40;99.90
54168;DHT22;68429;50.958;3.592;2023-10-13T15:06:25;21.50;99.90
54168;DHT22;68429;50.958;3.592;2023-10-13T15:08:52;21.60;99.90
54168;DHT22;68429;50.958;3.592;2023-10-13T15:11:20;21.50;99.90
54168;DHT22;68429;50.958;3.592;2023-10-13T15:13:46;21.60;99.90
54168;DHT22;68429;50.958;3.592;2023-10-13T15:16:17;21.60;99.90
54168;DHT22;68429;50.958;3.592;2023-10-13T15:18:49;21.70;99.90
54168;DHT22;68429;50.958;3.592;2023-10-13T15:21:29;21.70;99.90
54168;DHT22;68429;50.958;3.592;2023-10-13T15:24:02;21.70;99.90
54168;DHT22;68429;50.958;3.592;2023-10-13T15:26:40;21.70;99.90
54168;DHT22;68429;50.958;3.592;2023-10-13T15:29:10;21.60;99.90
54168;DHT22;68429;50.958;3.592;2023-10-13T15:31:41;21.60;99.90
54168;DHT22;68429;50.958;3.592;2023-10-13T15:34:12;21.50;99.90
54168;DHT22;68429;50.958;3.592;2023-10-13T15:36:43;21.50;99.90
54168;DHT22;68429;50.958;3.592;2023-10-13T15:39:09;21.50;99.90
54168;DHT22;68429;50.958;3.592;2023-10-13T15:41:36;21.50;99.90
54168;DHT22;68429;50.958;3.592;2023-10-13T15:44:08;21.60;99.90
54168;DHT22;68429;50.958;3.592;2023-10-13T15:46:36;21.50;99.90
54168;DHT22;68429;50.958;3.592;2023-10-13T15:49:02;21.50;99.90
54168;DHT22;68429;50.958;3.592;2023-10-13T15:51:34;21.50;99.90
54168;DHT22;68429;50.958;3.592;2023-10-13T15:54:03;21.10;99.90
54168;DHT22;68429;50.958;3.592;2023-10-13T15:56:30;20.70;99.90
54168;DHT22;68429;50.958;3.592;2023-10-13T15:58:59;20.50;99.90
54168;DHT22;68429;50.958;3.592;2023-10-13T16:01:28;20.40;99.90
54168;DHT22;68429;50.958;3.592;2023-10-13T16:03:54;20.30;99.90
54168;DHT22;68429;50.958;3.592;2023-10-13T16:06:20;20.20;99.90
54168;DHT22;68429;50.958;3.592;2023-10-13T16:08:53;20.20;99.90
54168;DHT22;68429;50.958;3.592;2023-10-13T16:11:20;20.10;99.90
54168;DHT22;68429;50.958;3.592;2023-10-13T16:13:48;20.10;99.90
54168;DHT22;68429;50.958;3.592;2023-10-13T16:16:18;20.20;99.90
54168;DHT22;68429;50.958;3.592;2023-10-13T16:18:45;20.20;99.90
54168;DHT22;68429;50.958;3.592;2023-10-13T16:21:11;20.40;99.90